createdAt,value
2023-04-16T00:03:54.837Z,10.06
2023-04-16T00:07:57.236Z,10.12
2023-04-16T00:11:59.431Z,10.16
2023-04-16T00:16:01.525Z,10.29
2023-04-16T00:20:04.193Z,10.23
2023-04-16T00:24:06.339Z,10.27
2023-04-16T00:28:11.024Z,10.24
2023-04-16T00:32:14.092Z,10.10
2023-04-16T00:36:16.483Z,10.08
2023-04-16T00:40:19.038Z,10.01
2023-04-16T00:44:23.001Z,10.03
2023-04-16T00:48:27.849Z,10.12
2023-04-16T00:52:32.838Z,10.17
2023-04-16T00:56:36.621Z,10.14
2023-04-16T01:00:38.727Z,10.16
2023-04-16T01:04:45.338Z,10.43
2023-04-16T01:08:53.106Z,10.27
2023-04-16T01:12:57.323Z,10.08
2023-04-16T01:17:00.031Z,10.18
2023-04-16T01:21:02.904Z,10.16
2023-04-16T01:25:06.371Z,10.24
2023-04-16T01:29:09.640Z,10.26
2023-04-16T01:33:14.706Z,10.34
2023-04-16T01:37:17.691Z,10.37
2023-04-16T01:41:22.030Z,10.47
2023-04-16T01:45:24.202Z,10.40
2023-04-16T01:49:26.380Z,10.31
2023-04-16T01:53:28.753Z,10.30
2023-04-16T01:57:30.979Z,10.38
2023-04-16T02:01:33.243Z,10.29
2023-04-16T02:05:35.744Z,10.25
2023-04-16T02:09:43.259Z,10.33
2023-04-16T02:13:47.029Z,10.38
2023-04-16T02:17:54.069Z,10.38
2023-04-16T02:21:58.382Z,10.33
2023-04-16T02:26:01.213Z,10.31
2023-04-16T02:30:04.812Z,10.33
2023-04-16T02:34:09.550Z,10.23
2023-04-16T02:38:11.832Z,10.19
2023-04-16T02:42:15.000Z,10.25
2023-04-16T02:46:17.303Z,10.27
2023-04-16T02:50:19.652Z,10.26
2023-04-16T02:54:22.103Z,10.22
2023-04-16T02:58:25.837Z,10.27
2023-04-16T03:02:28.078Z,10.23
2023-04-16T03:06:31.508Z,10.28
2023-04-16T03:10:35.118Z,10.26
2023-04-16T03:14:37.159Z,10.25
2023-04-16T03:18:40.558Z,10.20
2023-04-16T03:22:43.207Z,10.22
2023-04-16T03:26:45.385Z,10.17
2023-04-16T03:30:53.149Z,10.14
2023-04-16T03:34:57.098Z,10.23
2023-04-16T03:38:59.512Z,10.23
2023-04-16T03:43:02.497Z,10.31
2023-04-16T03:47:04.647Z,10.25
2023-04-16T03:51:06.829Z,10.24
2023-04-16T03:55:10.053Z,10.31
2023-04-16T03:59:12.357Z,10.27
2023-04-16T04:03:17.457Z,10.29
2023-04-16T04:07:21.725Z,10.33
2023-04-16T04:11:24.002Z,10.27
2023-04-16T04:15:28.408Z,10.39
2023-04-16T04:19:30.881Z,10.36
2023-04-16T04:23:33.457Z,10.31
2023-04-16T04:27:35.838Z,10.25
2023-04-16T04:31:38.304Z,10.28
2023-04-16T04:35:40.640Z,10.37
2023-04-16T04:39:44.259Z,10.36
2023-04-16T04:43:47.593Z,10.23
2023-04-16T04:47:49.923Z,10.26
2023-04-16T04:51:52.402Z,10.21
2023-04-16T04:55:58.750Z,10.19
2023-04-16T05:00:11.569Z,10.17
2023-04-16T05:04:23.991Z,10.18
2023-04-16T05:08:26.359Z,10.16
2023-04-16T05:12:28.508Z,10.22
2023-04-16T05:16:30.769Z,10.23
2023-04-16T05:20:32.893Z,10.22
2023-04-16T05:24:35.644Z,10.28
2023-04-16T05:28:37.752Z,10.32
2023-04-16T05:32:41.461Z,10.38
2023-04-16T05:36:43.546Z,10.53
2023-04-16T05:40:45.883Z,10.60
2023-04-16T05:44:48.676Z,10.71
2023-04-16T05:48:50.826Z,10.85
2023-04-16T05:52:52.959Z,10.92
2023-04-16T05:56:55.033Z,10.98
2023-04-16T06:00:57.272Z,10.97
2023-04-16T06:04:59.328Z,11.12
2023-04-16T06:09:01.559Z,11.20
2023-04-16T06:13:03.753Z,11.32
2023-04-16T06:17:05.816Z,11.47
2023-04-16T06:21:08.018Z,11.44
2023-04-16T06:25:10.319Z,11.56
2023-04-16T06:29:12.491Z,11.51
2023-04-16T06:33:14.641Z,11.46
2023-04-16T06:37:17.830Z,11.56
2023-04-16T06:41:20.801Z,11.86
2023-04-16T06:45:24.910Z,11.80
2023-04-16T06:49:27.151Z,11.85
2023-04-16T06:53:29.235Z,11.86
2023-04-16T06:57:31.401Z,11.72
2023-04-16T07:01:34.422Z,11.97
2023-04-16T07:05:36.722Z,12.13
2023-04-16T07:09:38.912Z,12.13
2023-04-16T07:13:41.089Z,12.08
2023-04-16T07:17:43.563Z,11.99
2023-04-16T07:21:46.286Z,12.45
2023-04-16T07:25:48.727Z,12.50
2023-04-16T07:29:52.232Z,12.55
2023-04-16T07:33:54.461Z,12.07
2023-04-16T07:37:56.713Z,12.14
2023-04-16T07:41:58.809Z,12.21
2023-04-16T07:46:01.029Z,12.42
2023-04-16T07:50:03.370Z,12.42
2023-04-16T07:54:05.585Z,12.72
2023-04-16T07:58:09.563Z,13.03
2023-04-16T08:02:15.416Z,13.01
2023-04-16T08:06:17.853Z,12.99
2023-04-16T08:10:20.001Z,13.01
2023-04-16T08:14:22.234Z,12.97
2023-04-16T08:18:24.727Z,13.26
2023-04-16T08:22:26.908Z,13.36
2023-04-16T08:26:29.142Z,13.26
2023-04-16T08:30:31.401Z,13.30
2023-04-16T08:34:33.528Z,13.24
2023-04-16T08:38:35.645Z,13.12
2023-04-16T08:42:55.837Z,13.25
2023-04-16T08:46:59.197Z,12.93
2023-04-16T08:51:02.458Z,13.41
2023-04-16T08:55:12.838Z,13.14
2023-04-16T08:59:15.024Z,13.10
2023-04-16T09:03:17.375Z,13.27
2023-04-16T09:07:21.245Z,13.72
2023-04-16T09:11:24.328Z,13.57
2023-04-16T09:15:27.314Z,13.48
2023-04-16T09:19:29.605Z,13.77
2023-04-16T09:23:31.802Z,13.71
2023-04-16T09:27:34.158Z,14.33
2023-04-16T09:31:36.494Z,14.14
2023-04-16T09:35:52.963Z,14.09
2023-04-16T09:40:05.223Z,13.93
2023-04-16T09:44:08.375Z,14.04
2023-04-16T09:48:10.649Z,13.54
2023-04-16T09:52:17.397Z,14.24
2023-04-16T09:56:24.993Z,14.35
2023-04-16T10:00:29.313Z,14.27
2023-04-16T10:04:52.472Z,14.34
2023-04-16T10:08:57.909Z,14.18
2023-04-16T10:13:00.286Z,13.98
2023-04-16T10:17:03.723Z,14.39
2023-04-16T10:21:06.327Z,13.95
2023-04-16T10:25:10.517Z,13.82
2023-04-16T10:29:13.912Z,14.12
2023-04-16T10:33:16.156Z,14.04
2023-04-16T10:37:18.699Z,14.20
2023-04-16T10:41:21.199Z,14.19
2023-04-16T10:45:29.796Z,14.44
2023-04-16T10:49:31.952Z,14.44
2023-04-16T10:53:37.184Z,14.37
2023-04-16T10:57:39.231Z,13.75
2023-04-16T11:01:46.380Z,13.87
2023-04-16T11:05:48.642Z,13.70
2023-04-16T11:09:53.745Z,14.30
2023-04-16T11:13:57.107Z,13.99
2023-04-16T11:17:59.465Z,14.08
2023-04-16T11:22:02.483Z,13.96
2023-04-16T11:26:04.690Z,13.90
2023-04-16T11:30:11.342Z,13.92
2023-04-16T11:34:14.246Z,13.94
2023-04-16T11:38:18.820Z,13.66
2023-04-16T11:42:25.259Z,14.11
2023-04-16T11:46:40.804Z,14.02
2023-04-16T11:50:43.569Z,14.42
2023-04-16T11:54:50.724Z,14.55
2023-04-16T11:59:16.112Z,14.53
2023-04-16T12:03:18.598Z,14.37
2023-04-16T12:07:21.183Z,14.02
2023-04-16T12:11:40.937Z,14.57
2023-04-16T12:15:47.772Z,14.62
2023-04-16T12:19:58.426Z,14.87
2023-04-16T12:24:00.585Z,14.65
2023-04-16T12:28:03.193Z,14.70
2023-04-16T12:32:05.501Z,14.90
2023-04-16T12:36:20.298Z,14.62
2023-04-16T12:40:22.604Z,14.10
2023-04-16T12:44:24.807Z,14.29
2023-04-16T12:48:26.857Z,14.36
2023-04-16T12:52:29.091Z,14.15
2023-04-16T12:56:31.605Z,14.68
2023-04-16T13:00:33.805Z,14.61
2023-04-16T13:04:36.061Z,14.80
2023-04-16T13:08:38.263Z,14.78
2023-04-16T13:12:40.446Z,14.78
2023-04-16T13:16:42.597Z,14.76
2023-04-16T13:20:44.757Z,14.79
2023-04-16T13:24:46.759Z,15.02
2023-04-16T13:28:48.841Z,15.33
2023-04-16T13:32:51.129Z,14.73
2023-04-16T13:36:53.187Z,15.34
2023-04-16T13:40:55.373Z,15.44
2023-04-16T13:44:58.275Z,15.31
2023-04-16T13:49:00.407Z,15.38
2023-04-16T13:53:02.852Z,15.50
2023-04-16T13:57:05.454Z,15.18
2023-04-16T14:01:08.076Z,15.38
2023-04-16T14:05:10.672Z,15.27
2023-04-16T14:09:13.303Z,15.04
2023-04-16T14:13:16.133Z,15.24
2023-04-16T14:17:18.277Z,15.34
2023-04-16T14:21:20.550Z,15.31
2023-04-16T14:25:22.944Z,15.00
2023-04-16T14:29:24.953Z,14.99
2023-04-16T14:33:27.920Z,15.29
2023-04-16T14:37:30.960Z,15.28
2023-04-16T14:41:33.208Z,15.48
2023-04-16T14:45:38.518Z,15.57
2023-04-16T14:49:41.456Z,14.91
2023-04-16T14:53:44.093Z,14.90
2023-04-16T14:57:47.011Z,14.42
2023-04-16T15:01:51.064Z,14.53
2023-04-16T15:05:56.270Z,14.72
2023-04-16T15:09:58.932Z,14.77
2023-04-16T15:14:01.550Z,15.20
2023-04-16T15:18:04.848Z,15.40
2023-04-16T15:22:07.212Z,15.53
2023-04-16T15:26:09.365Z,15.44
2023-04-16T15:30:12.652Z,15.38
2023-04-16T15:34:15.006Z,15.82
2023-04-16T15:38:18.070Z,15.52
2023-04-16T15:42:20.500Z,15.54
2023-04-16T15:46:22.665Z,16.17
2023-04-16T15:50:25.833Z,17.44
2023-04-16T15:54:29.035Z,18.23
2023-04-16T15:58:33.868Z,16.81
2023-04-16T16:02:36.282Z,16.91
2023-04-16T16:06:38.727Z,17.28
2023-04-16T16:10:41.160Z,16.21
2023-04-16T16:14:44.658Z,15.71
2023-04-16T16:18:48.333Z,17.97
2023-04-16T16:22:53.112Z,16.99
2023-04-16T16:26:56.654Z,17.86
2023-04-16T16:31:00.785Z,18.07
2023-04-16T16:35:05.269Z,16.74
2023-04-16T16:39:08.751Z,16.45
2023-04-16T16:43:12.273Z,16.53
2023-04-16T16:47:15.764Z,15.90
2023-04-16T16:51:19.067Z,16.19
2023-04-16T16:55:21.345Z,16.32
2023-04-16T16:59:23.461Z,16.32
2023-04-16T17:03:25.820Z,16.72
2023-04-16T17:07:28.111Z,15.47
2023-04-16T17:11:30.460Z,15.29
2023-04-16T17:15:32.663Z,14.88
2023-04-16T17:19:36.338Z,14.40
2023-04-16T17:23:41.012Z,14.64
2023-04-16T17:27:46.649Z,14.80
2023-04-16T17:31:48.847Z,14.37
2023-04-16T17:35:51.309Z,13.64
2023-04-16T17:39:53.462Z,13.62
2023-04-16T17:43:55.687Z,13.26
2023-04-16T17:47:57.790Z,12.93
2023-04-16T17:51:59.978Z,12.39
2023-04-16T17:56:02.844Z,11.98
2023-04-16T18:00:06.615Z,11.70
2023-04-16T18:04:14.093Z,11.35
2023-04-16T18:08:16.848Z,11.18
2023-04-16T18:12:19.187Z,10.97
2023-04-16T18:16:22.519Z,10.81
2023-04-16T18:20:24.828Z,10.62
2023-04-16T18:24:27.141Z,10.59
2023-04-16T18:28:29.540Z,10.47
2023-04-16T18:32:31.812Z,10.51
2023-04-16T18:36:34.428Z,10.55
2023-04-16T18:40:37.344Z,10.45
2023-04-16T18:44:39.474Z,10.47
2023-04-16T18:48:41.915Z,10.44
2023-04-16T18:52:44.159Z,10.51
2023-04-16T18:56:46.350Z,10.44
2023-04-16T19:00:53.045Z,10.49
2023-04-16T19:04:55.529Z,10.39
2023-04-16T19:08:57.780Z,10.41
2023-04-16T19:13:00.153Z,10.40
2023-04-16T19:17:02.870Z,10.43
2023-04-16T19:21:05.802Z,10.41
2023-04-16T19:25:08.279Z,10.39
2023-04-16T19:29:10.638Z,10.38
2023-04-16T19:33:13.379Z,10.34
2023-04-16T19:37:15.874Z,10.33
2023-04-16T19:41:18.190Z,10.39
2023-04-16T19:45:25.681Z,10.32
2023-04-16T19:49:27.951Z,10.32
2023-04-16T19:53:30.097Z,10.30
2023-04-16T19:57:32.272Z,10.23
2023-04-16T20:01:34.560Z,10.23
2023-04-16T20:05:36.813Z,10.28
2023-04-16T20:09:39.055Z,10.27
2023-04-16T20:13:41.336Z,10.22
2023-04-16T20:17:44.268Z,10.22
2023-04-16T20:21:46.490Z,10.20
2023-04-16T20:25:48.752Z,10.15
2023-04-16T20:29:51.859Z,10.19
2023-04-16T20:33:54.260Z,10.23
2023-04-16T20:37:56.516Z,10.21
2023-04-16T20:41:58.821Z,10.17
2023-04-16T20:46:03.033Z,10.12
2023-04-16T20:50:06.088Z,10.09
2023-04-16T20:54:12.538Z,10.05
2023-04-16T20:58:14.672Z,9.94
2023-04-16T21:02:16.937Z,9.92
2023-04-16T21:06:22.576Z,9.86
2023-04-16T21:10:25.209Z,9.85
2023-04-16T21:14:27.264Z,9.84
2023-04-16T21:18:29.419Z,9.79
2023-04-16T21:22:31.661Z,9.78
2023-04-16T21:26:33.808Z,9.80
2023-04-16T21:30:36.814Z,9.95
2023-04-16T21:34:39.077Z,10.12
2023-04-16T21:38:41.444Z,10.18
2023-04-16T21:42:45.075Z,10.23
2023-04-16T21:46:47.727Z,10.23
2023-04-16T21:51:06.386Z,10.17
2023-04-16T21:55:09.642Z,10.20
2023-04-16T21:59:11.947Z,10.23
2023-04-16T22:03:17.689Z,10.28
2023-04-16T22:07:20.835Z,10.27
2023-04-16T22:11:23.475Z,10.20
2023-04-16T22:15:25.825Z,10.18
2023-04-16T22:19:28.226Z,10.19
2023-04-16T22:23:30.540Z,10.17
2023-04-16T22:27:33.274Z,10.24
2023-04-16T22:31:35.416Z,10.28
2023-04-16T22:35:37.564Z,10.30
2023-04-16T22:39:39.750Z,10.32
2023-04-16T22:43:43.146Z,10.23
2023-04-16T22:47:45.339Z,10.09
2023-04-16T22:51:47.549Z,10.08
2023-04-16T22:55:49.721Z,10.14
2023-04-16T22:59:53.163Z,10.17
2023-04-16T23:03:55.472Z,10.07
2023-04-16T23:08:01.293Z,10.09
2023-04-16T23:12:05.298Z,10.09
2023-04-16T23:16:08.420Z,10.20
2023-04-16T23:20:13.290Z,10.17
2023-04-16T23:24:15.638Z,10.21
2023-04-16T23:28:18.037Z,10.21
2023-04-16T23:32:21.825Z,10.20
2023-04-16T23:36:24.071Z,10.20
2023-04-16T23:40:27.210Z,10.10
2023-04-16T23:44:29.312Z,10.05
2023-04-16T23:48:35.100Z,10.04
2023-04-16T23:52:37.151Z,10.07
2023-04-16T23:56:39.663Z,10.13
